createdAt,value
2019-05-26T00:02:29.876Z,3.90
2019-05-26T00:04:59.838Z,3.70
2019-05-26T00:07:31.006Z,3.60
2019-05-26T00:10:01.149Z,2.17
2019-05-26T00:12:31.153Z,4.20
2019-05-26T00:15:01.389Z,3.80
2019-05-26T00:17:31.568Z,3.83
2019-05-26T00:20:01.550Z,3.47
2019-05-26T00:22:31.531Z,2.80
2019-05-26T00:25:01.552Z,4.33
2019-05-26T00:27:31.565Z,3.17
2019-05-26T00:30:01.546Z,4.67
2019-05-26T00:32:31.555Z,4.40
2019-05-26T00:35:01.543Z,4.77
2019-05-26T00:37:47.719Z,3.37
2019-05-26T00:40:03.227Z,4.37
2019-05-26T00:42:33.241Z,4.30
2019-05-26T00:45:03.319Z,7.57
2019-05-26T00:47:33.381Z,3.30
2019-05-26T00:50:03.409Z,4.33
2019-05-26T00:52:33.467Z,6.43
2019-05-26T00:55:03.453Z,3.03
2019-05-26T00:57:33.440Z,4.07
2019-05-26T01:02:50.749Z,4.07
2019-05-26T01:05:20.754Z,5.37
2019-05-26T01:08:05.238Z,3.10
2019-05-26T01:10:22.412Z,3.07
2019-05-26T01:12:52.449Z,3.57
2019-05-26T01:15:22.418Z,2.33
2019-05-26T01:17:52.406Z,6.60
2019-05-26T01:20:22.353Z,4.67
2019-05-26T01:22:53.934Z,4.73
2019-05-26T01:25:24.067Z,3.10
2019-05-26T01:27:54.061Z,3.07
2019-05-26T01:30:36.526Z,4.07
2019-05-26T01:33:07.120Z,3.60
2019-05-26T01:35:40.257Z,2.90
2019-05-26T01:38:23.382Z,3.30
2019-05-26T01:40:44.089Z,4.47
2019-05-26T01:43:14.459Z,3.13
2019-05-26T01:45:44.460Z,6.20
2019-05-26T01:48:14.473Z,5.53
2019-05-26T01:50:44.473Z,7.97
2019-05-26T01:53:14.503Z,2.93
2019-05-26T01:55:44.505Z,4.33
2019-05-26T01:58:14.896Z,6.03
2019-05-26T02:00:44.863Z,6.40
2019-05-26T02:03:14.906Z,5.13
2019-05-26T02:05:44.985Z,3.77
2019-05-26T02:08:14.953Z,3.83
2019-05-26T02:10:44.976Z,3.50
2019-05-26T02:13:15.463Z,6.27
2019-05-26T02:15:45.515Z,8.60
2019-05-26T02:18:15.513Z,4.13
2019-05-26T02:20:45.452Z,3.90
2019-05-26T02:23:15.407Z,4.00
2019-05-26T02:25:45.399Z,4.47
2019-05-26T02:28:15.353Z,3.37
2019-05-26T02:30:45.334Z,3.67
2019-05-26T02:33:15.284Z,3.73
2019-05-26T02:35:45.249Z,9.37
2019-05-26T02:38:15.193Z,5.73
2019-05-26T02:40:45.173Z,3.00
2019-05-26T02:43:15.170Z,3.07
2019-05-26T02:45:45.208Z,2.97
2019-05-26T02:48:15.113Z,3.40
2019-05-26T02:50:45.156Z,4.10
2019-05-26T02:53:15.107Z,2.80
2019-05-26T02:55:45.070Z,3.50
2019-05-26T02:58:15.009Z,4.80
2019-05-26T03:00:45.841Z,2.87
2019-05-26T03:03:16.478Z,3.30
2019-05-26T03:05:47.030Z,3.67
2019-05-26T03:08:17.700Z,5.83
2019-05-26T03:10:49.292Z,3.83
2019-05-26T03:13:19.423Z,4.00
2019-05-26T03:15:49.410Z,6.40
2019-05-26T03:18:19.367Z,2.97
2019-05-26T03:20:49.342Z,3.20
2019-05-26T03:23:19.301Z,3.13
2019-05-26T03:25:49.282Z,3.80
2019-05-26T03:28:19.239Z,3.73
2019-05-26T03:30:49.225Z,3.70
2019-05-26T03:33:19.174Z,2.97
2019-05-26T03:35:49.141Z,3.93
2019-05-26T03:38:19.097Z,3.33
2019-05-26T03:40:49.079Z,3.37
2019-05-26T03:43:19.044Z,3.40
2019-05-26T03:46:18.183Z,4.87
2019-05-26T03:48:48.200Z,3.50
2019-05-26T03:51:18.206Z,4.67
2019-05-26T03:53:48.131Z,3.27
2019-05-26T03:56:18.144Z,3.60
2019-05-26T03:58:48.170Z,4.53
2019-05-26T04:01:18.228Z,3.40
2019-05-26T04:03:48.243Z,4.50
2019-05-26T04:06:18.299Z,4.00
2019-05-26T04:08:48.326Z,4.50
2019-05-26T04:11:18.389Z,4.17
2019-05-26T04:13:48.425Z,3.23
2019-05-26T04:16:18.457Z,4.00
2019-05-26T04:18:48.472Z,3.77
2019-05-26T04:21:18.451Z,3.53
2019-05-26T04:23:48.428Z,3.37
2019-05-26T04:26:18.393Z,4.20
2019-05-26T04:28:48.356Z,5.20
2019-05-26T04:31:18.339Z,6.53
2019-05-26T04:33:48.294Z,6.50
2019-05-26T04:36:18.266Z,4.93
2019-05-26T04:38:48.219Z,5.07
2019-05-26T04:41:18.179Z,5.43
2019-05-26T04:43:48.146Z,5.53
2019-05-26T04:46:18.166Z,11.13
2019-05-26T04:48:48.120Z,6.10
2019-05-26T04:51:18.097Z,8.53
2019-05-26T04:53:48.043Z,6.07
2019-05-26T04:56:18.022Z,9.90
2019-05-26T04:58:47.981Z,9.37
2019-05-26T05:01:17.963Z,4.17
2019-05-26T05:03:48.001Z,5.80
2019-05-26T05:06:18.061Z,6.10
2019-05-26T05:08:48.005Z,5.97
2019-05-26T05:11:17.958Z,7.50
2019-05-26T05:13:48.006Z,5.43
2019-05-26T05:16:17.988Z,5.57
2019-05-26T05:18:48.026Z,5.00
2019-05-26T05:21:18.184Z,3.80
2019-05-26T05:23:48.252Z,4.43
2019-05-26T05:26:18.237Z,4.63
2019-05-26T05:28:48.260Z,3.93
2019-05-26T05:31:18.252Z,6.33
2019-05-26T05:33:48.221Z,5.93
2019-05-26T05:36:18.210Z,4.77
2019-05-26T05:38:48.181Z,9.60
2019-05-26T05:41:19.246Z,4.73
2019-05-26T05:43:49.207Z,3.67
2019-05-26T05:46:19.205Z,3.83
2019-05-26T05:48:49.173Z,3.77
2019-05-26T05:51:19.160Z,6.33
2019-05-26T05:53:49.155Z,3.60
2019-05-26T05:56:19.171Z,4.07
2019-05-26T05:58:49.191Z,5.00
2019-05-26T06:01:19.288Z,4.80
2019-05-26T06:03:49.267Z,4.33
2019-05-26T06:06:19.245Z,4.57
2019-05-26T06:08:49.241Z,4.13
2019-05-26T06:11:19.220Z,7.43
2019-05-26T06:13:49.296Z,6.63
2019-05-26T06:16:19.264Z,4.90
2019-05-26T06:18:49.308Z,4.53
2019-05-26T06:21:19.297Z,3.33
2019-05-26T06:23:49.323Z,3.80
2019-05-26T06:26:19.297Z,3.83
2019-05-26T06:28:52.305Z,5.90
2019-05-26T06:31:20.946Z,4.97
2019-05-26T06:33:50.942Z,4.43
2019-05-26T06:36:20.930Z,5.67
2019-05-26T06:38:51.103Z,6.63
2019-05-26T06:41:32.964Z,5.40
2019-05-26T06:43:52.737Z,5.90
2019-05-26T06:46:22.738Z,5.17
2019-05-26T06:48:52.750Z,3.90
2019-05-26T06:51:22.738Z,4.10
2019-05-26T06:53:52.745Z,4.63
2019-05-26T06:56:22.737Z,6.87
2019-05-26T06:58:52.685Z,4.17
2019-05-26T07:01:22.635Z,5.77
2019-05-26T07:03:52.636Z,4.63
2019-05-26T07:06:22.602Z,3.93
2019-05-26T07:08:52.611Z,6.40
2019-05-26T07:11:22.595Z,4.57
2019-05-26T07:13:52.603Z,5.30
2019-05-26T07:16:36.832Z,4.03
2019-05-26T07:18:54.313Z,5.20
2019-05-26T07:21:24.330Z,4.63
2019-05-26T07:23:54.318Z,4.37
2019-05-26T07:26:24.274Z,5.83
2019-05-26T07:28:54.274Z,4.60
2019-05-26T07:31:24.268Z,5.33
2019-05-26T07:33:54.313Z,5.80
2019-05-26T07:36:24.351Z,5.70
2019-05-26T07:38:54.392Z,5.37
2019-05-26T07:41:24.437Z,4.40
2019-05-26T07:43:54.449Z,5.00
2019-05-26T07:46:24.419Z,5.07
2019-05-26T07:48:54.395Z,7.50
2019-05-26T07:51:24.370Z,7.67
2019-05-26T07:53:56.255Z,6.90
2019-05-26T07:56:26.087Z,7.27
2019-05-26T07:58:56.094Z,6.10
2019-05-26T08:01:35.167Z,6.07
2019-05-26T08:03:57.809Z,6.60
2019-05-26T08:06:27.787Z,7.10
2019-05-26T08:08:57.797Z,4.27
2019-05-26T08:11:27.773Z,5.77
2019-05-26T08:13:57.883Z,5.20
2019-05-26T08:16:27.883Z,4.80
2019-05-26T08:18:57.870Z,6.13
2019-05-26T08:21:27.843Z,5.83
2019-05-26T08:23:57.854Z,5.10
2019-05-26T08:26:27.819Z,6.63
2019-05-26T08:28:57.805Z,3.70
2019-05-26T08:31:27.769Z,3.80
2019-05-26T08:33:57.790Z,3.60
2019-05-26T08:36:27.778Z,5.10
2019-05-26T08:38:57.989Z,5.63
2019-05-26T08:41:27.989Z,6.80
2019-05-26T08:43:58.008Z,4.27
2019-05-26T08:46:28.019Z,3.60
2019-05-26T08:48:58.000Z,6.23
2019-05-26T08:51:28.001Z,5.47
2019-05-26T08:53:57.991Z,3.17
2019-05-26T08:56:27.978Z,4.47
2019-05-26T08:58:57.991Z,5.60
2019-05-26T09:01:28.125Z,5.30
2019-05-26T09:03:58.122Z,4.75
2019-05-26T09:06:28.100Z,3.83
2019-05-26T09:08:58.114Z,3.37
2019-05-26T09:11:28.604Z,5.10
2019-05-26T09:13:58.619Z,5.40
2019-05-26T09:16:28.649Z,3.50
2019-05-26T09:18:58.629Z,3.60
2019-05-26T09:21:28.592Z,5.57
2019-05-26T09:23:58.603Z,5.30
2019-05-26T09:26:28.574Z,3.50
2019-05-26T09:28:58.594Z,4.53
2019-05-26T09:31:28.569Z,4.63
2019-05-26T09:33:58.605Z,3.62
2019-05-26T09:36:28.591Z,4.00
2019-05-26T09:38:58.583Z,6.80
2019-05-26T09:41:28.684Z,3.03
2019-05-26T09:43:58.651Z,5.25
2019-05-26T09:46:28.641Z,4.53
2019-05-26T09:49:00.877Z,4.12
2019-05-26T09:51:30.454Z,2.58
2019-05-26T09:54:02.038Z,3.37
2019-05-26T09:56:32.408Z,6.30
2019-05-26T09:59:02.408Z,4.87
2019-05-26T10:01:32.485Z,5.05
2019-05-26T10:04:02.492Z,2.60
2019-05-26T10:06:32.589Z,2.83
2019-05-26T10:09:02.636Z,4.15
2019-05-26T10:11:32.682Z,7.08
2019-05-26T10:14:02.734Z,3.03
2019-05-26T10:16:32.792Z,4.67
2019-05-26T10:19:02.804Z,5.95
2019-05-26T10:21:32.798Z,4.60
2019-05-26T10:24:02.804Z,8.38
2019-05-26T10:26:32.808Z,4.67
2019-05-26T10:29:02.806Z,3.73
2019-05-26T10:31:32.816Z,7.17
2019-05-26T10:34:02.846Z,3.12
2019-05-26T10:36:32.868Z,5.80
2019-05-26T10:39:02.883Z,4.40
2019-05-26T10:41:32.926Z,4.37
2019-05-26T10:44:02.927Z,5.85
2019-05-26T10:46:32.968Z,4.65
2019-05-26T10:49:02.970Z,4.53
2019-05-26T10:51:33.261Z,4.37
2019-05-26T10:54:03.229Z,4.92
2019-05-26T10:56:33.242Z,6.28
2019-05-26T10:59:03.242Z,4.42
2019-05-26T11:01:33.229Z,8.68
2019-05-26T11:04:03.223Z,8.08
2019-05-26T11:06:33.232Z,6.72
2019-05-26T11:09:03.303Z,4.60
2019-05-26T11:11:34.122Z,5.87
2019-05-26T11:14:04.609Z,5.40
2019-05-26T11:16:34.598Z,5.70
2019-05-26T11:19:04.587Z,7.67
2019-05-26T11:21:34.619Z,6.28
2019-05-26T11:24:04.717Z,6.50
2019-05-26T11:26:34.733Z,6.40
2019-05-26T11:29:05.037Z,6.65
2019-05-26T11:31:35.084Z,6.10
2019-05-26T11:34:05.166Z,6.33
2019-05-26T11:36:35.234Z,6.47
2019-05-26T11:39:07.069Z,5.75
2019-05-26T11:41:37.081Z,5.97
2019-05-26T11:44:17.473Z,7.33
2019-05-26T11:46:38.764Z,6.58
2019-05-26T11:49:08.737Z,5.37
2019-05-26T11:51:38.766Z,5.37
2019-05-26T11:54:08.769Z,6.47
2019-05-26T11:56:38.741Z,6.03
2019-05-26T11:59:08.769Z,5.03
2019-05-26T12:01:38.824Z,4.20
2019-05-26T12:04:08.806Z,5.45
2019-05-26T12:06:38.791Z,5.85
2019-05-26T12:09:09.529Z,5.50
2019-05-26T12:11:39.511Z,6.78
2019-05-26T12:14:09.539Z,4.90
2019-05-26T12:16:39.682Z,7.90
2019-05-26T12:19:09.807Z,6.50
2019-05-26T12:21:39.791Z,5.33
2019-05-26T12:24:09.863Z,5.03
2019-05-26T12:26:39.869Z,8.20
2019-05-26T12:29:09.848Z,6.40
2019-05-26T12:31:39.892Z,5.62
2019-05-26T12:34:09.960Z,5.03
2019-05-26T12:36:39.946Z,6.70
2019-05-26T12:39:10.077Z,4.50
2019-05-26T12:41:40.053Z,5.28
2019-05-26T12:44:11.066Z,3.12
2019-05-26T12:46:41.191Z,4.75
2019-05-26T12:49:11.207Z,4.10
2019-05-26T12:51:41.236Z,3.33
2019-05-26T12:54:11.245Z,6.20
2019-05-26T12:56:41.231Z,5.97
2019-05-26T12:59:11.325Z,5.33
2019-05-26T13:01:41.332Z,4.72
2019-05-26T13:04:11.388Z,4.35
2019-05-26T13:06:41.488Z,4.53
2019-05-26T13:09:12.018Z,4.28
2019-05-26T13:11:42.050Z,8.65
2019-05-26T13:14:12.091Z,5.58
2019-05-26T13:16:42.084Z,6.70
2019-05-26T13:19:12.118Z,4.65
2019-05-26T13:21:42.137Z,5.83
2019-05-26T13:24:12.186Z,6.95
2019-05-26T13:26:42.191Z,9.83
2019-05-26T13:29:12.388Z,4.30
2019-05-26T13:31:42.515Z,7.75
2019-05-26T13:34:12.537Z,6.75
2019-05-26T13:36:42.628Z,4.05
2019-05-26T13:39:12.660Z,4.15
2019-05-26T13:41:42.629Z,4.00
2019-05-26T13:44:12.639Z,5.75
2019-05-26T13:46:42.710Z,5.50
2019-05-26T13:49:12.722Z,5.25
2019-05-26T13:51:42.704Z,3.80
2019-05-26T13:54:12.731Z,3.85
2019-05-26T13:56:42.719Z,5.50
2019-05-26T13:59:12.718Z,3.90
2019-05-26T14:01:42.709Z,4.60
2019-05-26T14:04:12.725Z,5.20
2019-05-26T14:06:42.698Z,6.53
2019-05-26T14:09:12.722Z,2.90
2019-05-26T14:11:42.715Z,3.83
2019-05-26T14:14:12.771Z,4.33
2019-05-26T14:16:43.778Z,6.75
2019-05-26T14:19:13.979Z,4.65
2019-05-26T14:21:43.993Z,4.37
2019-05-26T14:24:13.976Z,4.50
2019-05-26T14:26:44.005Z,3.72
2019-05-26T14:29:13.988Z,4.17
2019-05-26T14:31:43.966Z,4.72
2019-05-26T14:34:13.965Z,4.53
2019-05-26T14:36:43.979Z,3.80
2019-05-26T14:39:13.999Z,5.25
2019-05-26T14:41:43.996Z,4.35
2019-05-26T14:44:13.984Z,4.20
2019-05-26T14:46:44.006Z,4.17
2019-05-26T14:49:14.400Z,4.30
2019-05-26T14:51:44.424Z,3.83
2019-05-26T14:54:14.417Z,4.05
2019-05-26T14:56:44.434Z,5.33
2019-05-26T14:59:14.444Z,5.22
2019-05-26T15:01:44.476Z,4.67
2019-05-26T15:04:14.582Z,4.05
2019-05-26T15:06:44.712Z,3.80
2019-05-26T15:09:24.851Z,3.02
2019-05-26T15:11:46.903Z,5.00
2019-05-26T15:14:16.982Z,3.05
2019-05-26T15:16:47.049Z,2.58
2019-05-26T15:19:17.448Z,3.77
2019-05-26T15:21:47.458Z,2.90
2019-05-26T15:24:17.428Z,6.50
2019-05-26T15:26:47.448Z,3.70
2019-05-26T15:29:17.472Z,3.22
2019-05-26T15:31:47.492Z,3.22
2019-05-26T15:34:17.510Z,8.38
2019-05-26T15:36:47.623Z,3.77
2019-05-26T15:39:17.625Z,4.05
2019-05-26T15:41:47.670Z,3.50
2019-05-26T15:44:17.659Z,4.35
2019-05-26T15:46:47.697Z,3.83
2019-05-26T15:49:17.676Z,4.37
2019-05-26T15:51:47.804Z,10.95
2019-05-26T15:54:17.800Z,4.50
2019-05-26T15:56:47.871Z,4.50
2019-05-26T15:59:17.859Z,6.65
2019-05-26T16:01:48.371Z,3.00
2019-05-26T16:04:18.475Z,5.12
2019-05-26T16:06:48.556Z,3.87
2019-05-26T16:09:18.724Z,3.00
2019-05-26T16:11:48.743Z,3.87
2019-05-26T16:14:18.765Z,3.27
2019-05-26T16:16:51.283Z,3.58
2019-05-26T16:19:20.505Z,3.77
2019-05-26T16:21:50.498Z,4.45
2019-05-26T16:24:20.522Z,4.85
2019-05-26T16:26:50.566Z,2.50
2019-05-26T16:29:20.586Z,4.47
2019-05-26T16:31:50.582Z,7.25
2019-05-26T16:34:20.572Z,3.70
2019-05-26T16:36:50.576Z,3.45
2019-05-26T16:39:34.349Z,3.17
2019-05-26T16:41:52.299Z,4.62
2019-05-26T16:44:22.263Z,3.12
2019-05-26T16:46:56.332Z,7.28
2019-05-26T16:49:23.968Z,2.95
2019-05-26T16:51:53.959Z,2.90
2019-05-26T16:54:24.068Z,3.27
2019-05-26T16:56:54.077Z,3.80
2019-05-26T16:59:24.104Z,2.80
2019-05-26T17:01:54.101Z,3.67
2019-05-26T17:04:24.099Z,6.42
2019-05-26T17:06:54.122Z,3.25
2019-05-26T17:09:24.129Z,3.05
2019-05-26T17:11:54.112Z,2.87
2019-05-26T17:14:24.250Z,2.98
2019-05-26T17:16:54.246Z,4.90
2019-05-26T17:19:24.268Z,3.77
2019-05-26T17:21:54.238Z,4.33
2019-05-26T17:24:24.254Z,3.20
2019-05-26T17:26:54.250Z,3.75
2019-05-26T17:29:24.258Z,6.67
2019-05-26T17:31:54.241Z,4.60
2019-05-26T17:34:24.246Z,4.25
2019-05-26T17:36:54.248Z,5.10
2019-05-26T17:39:24.263Z,4.03
2019-05-26T17:41:54.277Z,2.90
2019-05-26T17:44:24.320Z,4.67
2019-05-26T17:46:54.332Z,4.45
2019-05-26T17:49:24.344Z,3.42
2019-05-26T17:51:54.316Z,4.22
2019-05-26T17:54:24.413Z,4.17
2019-05-26T17:56:54.412Z,3.70
2019-05-26T17:59:24.446Z,4.10
2019-05-26T18:01:54.458Z,4.97
2019-05-26T18:04:24.495Z,3.00
2019-05-26T18:06:54.506Z,5.92
2019-05-26T18:09:24.568Z,6.05
2019-05-26T18:11:54.590Z,4.15
2019-05-26T18:14:24.661Z,4.53
2019-05-26T18:16:54.693Z,3.40
2019-05-26T18:19:24.718Z,4.42
2019-05-26T18:21:54.729Z,7.50
2019-05-26T18:24:24.842Z,4.50
2019-05-26T18:26:54.838Z,5.28
2019-05-26T18:29:24.860Z,4.45
2019-05-26T18:31:55.126Z,5.12
2019-05-26T18:34:25.257Z,6.53
2019-05-26T18:36:55.270Z,7.58
2019-05-26T18:39:25.276Z,5.20
2019-05-26T18:41:55.308Z,5.97
2019-05-26T18:44:25.353Z,6.03
2019-05-26T18:46:55.322Z,5.83
2019-05-26T18:49:25.348Z,5.85
2019-05-26T18:51:55.325Z,6.50
2019-05-26T18:54:25.379Z,6.92
2019-05-26T18:56:55.365Z,6.40
2019-05-26T18:59:25.434Z,6.95
2019-05-26T19:01:55.463Z,8.15
2019-05-26T19:04:25.455Z,7.37
2019-05-26T19:06:55.510Z,6.17
2019-05-26T19:09:25.550Z,7.12
2019-05-26T19:11:55.527Z,6.35
2019-05-26T19:14:25.564Z,5.50
2019-05-26T19:16:55.581Z,6.75
2019-05-26T19:19:25.582Z,7.03
2019-05-26T19:21:55.617Z,9.83
2019-05-26T19:24:25.638Z,7.00
2019-05-26T19:26:55.780Z,7.75
2019-05-26T19:29:25.791Z,7.55
2019-05-26T19:31:55.804Z,8.90
2019-05-26T19:34:25.845Z,8.83
2019-05-26T19:36:55.895Z,8.30
2019-05-26T19:39:25.974Z,8.00
2019-05-26T19:41:55.938Z,7.83
2019-05-26T19:44:25.928Z,8.13
2019-05-26T19:46:55.938Z,9.13
2019-05-26T19:49:25.937Z,7.40
2019-05-26T19:51:56.022Z,10.23
2019-05-26T19:54:26.022Z,11.97
2019-05-26T19:56:56.055Z,9.23
2019-05-26T19:59:26.042Z,8.73
2019-05-26T20:01:56.057Z,9.00
2019-05-26T20:04:26.040Z,9.60
2019-05-26T20:06:56.078Z,10.48
2019-05-26T20:09:26.077Z,7.85
2019-05-26T20:11:56.140Z,7.05
2019-05-26T20:14:26.363Z,7.42
2019-05-26T20:16:56.356Z,8.55
2019-05-26T20:19:26.355Z,6.47
2019-05-26T20:21:56.363Z,8.13
2019-05-26T20:24:26.366Z,8.90
2019-05-26T20:26:56.367Z,10.10
2019-05-26T20:29:26.353Z,10.68
2019-05-26T20:31:56.436Z,10.58
2019-05-26T20:34:26.483Z,11.60
2019-05-26T20:36:56.506Z,10.63
2019-05-26T20:39:26.535Z,10.15
2019-05-26T20:41:56.578Z,10.88
2019-05-26T20:44:26.546Z,10.98
2019-05-26T20:46:56.573Z,10.43
2019-05-26T20:49:26.589Z,13.03
2019-05-26T20:51:56.603Z,10.05
2019-05-26T20:54:26.583Z,9.93
2019-05-26T20:56:56.595Z,11.75
2019-05-26T20:59:26.586Z,11.25
2019-05-26T21:01:56.603Z,10.53
2019-05-26T21:04:26.630Z,12.37
2019-05-26T21:06:56.668Z,15.25
2019-05-26T21:09:27.238Z,9.68
2019-05-26T21:11:57.214Z,10.82
2019-05-26T21:14:28.067Z,13.53
2019-05-26T21:16:58.151Z,9.13
2019-05-26T21:19:28.168Z,8.60
2019-05-26T21:21:58.215Z,9.25
2019-05-26T21:24:28.258Z,11.78
2019-05-26T21:26:58.291Z,9.05
2019-05-26T21:29:28.277Z,10.05
2019-05-26T21:31:58.299Z,8.48
2019-05-26T21:34:28.313Z,8.80
2019-05-26T21:36:58.389Z,9.03
2019-05-26T21:39:28.398Z,9.40
2019-05-26T21:41:58.445Z,10.32
2019-05-26T21:44:28.567Z,9.05
2019-05-26T21:46:58.641Z,10.88
2019-05-26T21:49:28.716Z,9.73
2019-05-26T21:51:58.890Z,9.28
2019-05-26T21:54:29.003Z,11.83
2019-05-26T21:56:58.994Z,11.57
2019-05-26T21:59:29.089Z,8.15
2019-05-26T22:01:59.172Z,9.08
2019-05-26T22:04:29.320Z,9.35
2019-05-26T22:06:59.367Z,8.43
2019-05-26T22:09:29.423Z,9.05
2019-05-26T22:11:59.481Z,8.30
2019-05-26T22:14:29.501Z,8.78
2019-05-26T22:16:59.549Z,6.92
2019-05-26T22:19:29.941Z,7.50
2019-05-26T22:21:59.957Z,7.72
2019-05-26T22:24:30.038Z,10.72
2019-05-26T22:27:00.100Z,7.78
2019-05-26T22:29:30.123Z,8.03
2019-05-26T22:32:00.205Z,7.55
2019-05-26T22:34:30.279Z,8.63
2019-05-26T22:37:00.277Z,8.00
2019-05-26T22:39:30.353Z,10.10
2019-05-26T22:42:00.668Z,7.03
2019-05-26T22:44:30.737Z,7.20
2019-05-26T22:47:00.741Z,8.63
2019-05-26T22:49:30.840Z,8.40
2019-05-26T22:52:00.805Z,8.83
2019-05-26T22:54:30.913Z,10.95
2019-05-26T22:57:00.873Z,9.33
2019-05-26T22:59:30.925Z,10.72
2019-05-26T23:02:01.007Z,12.00
2019-05-26T23:04:30.997Z,9.78
2019-05-26T23:07:01.068Z,11.08
2019-05-26T23:09:31.187Z,10.32
2019-05-26T23:12:01.164Z,10.38
2019-05-26T23:14:31.237Z,9.65
2019-05-26T23:17:01.262Z,11.22
2019-05-26T23:19:31.249Z,13.90
2019-05-26T23:22:01.348Z,9.83
2019-05-26T23:24:31.626Z,13.20
2019-05-26T23:27:01.771Z,11.10
2019-05-26T23:29:31.772Z,12.00
2019-05-26T23:32:01.768Z,14.00
2019-05-26T23:34:32.583Z,11.55
2019-05-26T23:37:02.598Z,11.45
2019-05-26T23:39:32.697Z,12.20
2019-05-26T23:42:02.735Z,12.75
2019-05-26T23:44:32.686Z,14.13
2019-05-26T23:47:02.684Z,12.10
2019-05-26T23:49:32.672Z,12.30
2019-05-26T23:52:02.682Z,13.65
2019-05-26T23:54:32.655Z,12.05
2019-05-26T23:57:02.680Z,13.85
2019-05-26T23:59:32.652Z,13.70
